sensor_id;sensor_type;location;lat;lon;timestamp;P1;durP1;ratioP1;P2;durP2;ratioP2
61250;SDS011;47126;47.508;8.590;2024-03-08T00:01:30;41.85;;;16.17;;
61250;SDS011;47126;47.508;8.590;2024-03-08T00:03:56;44.92;;;17.02;;
61250;SDS011;47126;47.508;8.590;2024-03-08T00:06:22;49.95;;;17.17;;
61250;SDS011;47126;47.508;8.590;2024-03-08T00:08:49;50.17;;;16.70;;
61250;SDS011;47126;47.508;8.590;2024-03-08T00:11:16;45.08;;;16.48;;
61250;SDS011;47126;47.508;8.590;2024-03-08T00:13:42;44.92;;;15.10;;
61250;SDS011;47126;47.508;8.590;2024-03-08T00:16:09;57.53;;;16.38;;
61250;SDS011;47126;47.508;8.590;2024-03-08T00:18:36;49.40;;;17.30;;
61250;SDS011;47126;47.508;8.590;2024-03-08T00:21:02;45.17;;;16.25;;
61250;SDS011;47126;47.508;8.590;2024-03-08T00:23:28;61.53;;;19.65;;
61250;SDS011;47126;47.508;8.590;2024-03-08T00:25:54;51.63;;;17.52;;
61250;SDS011;47126;47.508;8.590;2024-03-08T00:28:20;45.17;;;16.75;;
61250;SDS011;47126;47.508;8.590;2024-03-08T00:30:46;54.42;;;19.27;;
61250;SDS011;47126;47.508;8.590;2024-03-08T00:33:13;46.78;;;18.00;;
61250;SDS011;47126;47.508;8.590;2024-03-08T00:35:39;47.63;;;17.23;;
61250;SDS011;47126;47.508;8.590;2024-03-08T00:38:04;42.22;;;15.10;;
61250;SDS011;47126;47.508;8.590;2024-03-08T00:40:30;45.40;;;14.70;;
61250;SDS011;47126;47.508;8.590;2024-03-08T00:42:56;53.25;;;19.30;;
61250;SDS011;47126;47.508;8.590;2024-03-08T00:45:22;56.80;;;19.08;;
61250;SDS011;47126;47.508;8.590;2024-03-08T00:47:48;50.75;;;17.63;;
61250;SDS011;47126;47.508;8.590;2024-03-08T00:50:15;49.95;;;17.67;;
61250;SDS011;47126;47.508;8.590;2024-03-08T00:52:41;54.85;;;17.02;;
61250;SDS011;47126;47.508;8.590;2024-03-08T00:55:07;66.60;;;18.90;;
61250;SDS011;47126;47.508;8.590;2024-03-08T00:57:35;51.13;;;19.08;;
61250;SDS011;47126;47.508;8.590;2024-03-08T01:00:03;46.42;;;17.45;;
61250;SDS011;47126;47.508;8.590;2024-03-08T01:02:30;59.45;;;19.77;;
61250;SDS011;47126;47.508;8.590;2024-03-08T01:04:58;55.03;;;19.30;;
61250;SDS011;47126;47.508;8.590;2024-03-08T01:07:24;63.65;;;18.45;;
61250;SDS011;47126;47.508;8.590;2024-03-08T01:09:50;56.10;;;21.65;;
61250;SDS011;47126;47.508;8.590;2024-03-08T01:12:16;52.38;;;18.92;;
61250;SDS011;47126;47.508;8.590;2024-03-08T01:14:42;56.60;;;19.35;;
61250;SDS011;47126;47.508;8.590;2024-03-08T01:17:08;55.30;;;19.58;;
61250;SDS011;47126;47.508;8.590;2024-03-08T01:19:35;60.50;;;21.55;;
61250;SDS011;47126;47.508;8.590;2024-03-08T01:22:01;56.70;;;21.10;;
61250;SDS011;47126;47.508;8.590;2024-03-08T01:24:27;69.95;;;22.27;;
61250;SDS011;47126;47.508;8.590;2024-03-08T01:26:53;64.15;;;22.63;;
61250;SDS011;47126;47.508;8.590;2024-03-08T01:29:19;64.38;;;22.13;;
61250;SDS011;47126;47.508;8.590;2024-03-08T01:31:45;63.97;;;23.17;;
61250;SDS011;47126;47.508;8.590;2024-03-08T01:34:11;74.13;;;22.58;;
61250;SDS011;47126;47.508;8.590;2024-03-08T01:36:37;58.72;;;20.83;;
61250;SDS011;47126;47.508;8.590;2024-03-08T01:39:03;65.30;;;21.52;;
61250;SDS011;47126;47.508;8.590;2024-03-08T01:41:33;58.35;;;20.40;;
61250;SDS011;47126;47.508;8.590;2024-03-08T01:44:00;61.42;;;23.30;;
61250;SDS011;47126;47.508;8.590;2024-03-08T01:46:26;70.85;;;21.02;;
61250;SDS011;47126;47.508;8.590;2024-03-08T01:48:53;82.55;;;25.40;;
61250;SDS011;47126;47.508;8.590;2024-03-08T01:51:19;61.72;;;21.73;;
61250;SDS011;47126;47.508;8.590;2024-03-08T01:53:46;71.47;;;24.75;;
61250;SDS011;47126;47.508;8.590;2024-03-08T01:56:12;70.57;;;23.27;;
61250;SDS011;47126;47.508;8.590;2024-03-08T01:58:40;63.10;;;21.67;;
61250;SDS011;47126;47.508;8.590;2024-03-08T02:01:08;66.00;;;21.13;;
61250;SDS011;47126;47.508;8.590;2024-03-08T02:03:35;64.47;;;21.88;;
61250;SDS011;47126;47.508;8.590;2024-03-08T02:06:01;71.93;;;23.40;;
61250;SDS011;47126;47.508;8.590;2024-03-08T02:08:30;67.85;;;23.30;;
61250;SDS011;47126;47.508;8.590;2024-03-08T02:10:56;66.90;;;23.52;;
61250;SDS011;47126;47.508;8.590;2024-03-08T02:13:22;67.55;;;24.33;;
61250;SDS011;47126;47.508;8.590;2024-03-08T02:15:52;68.00;;;23.52;;
61250;SDS011;47126;47.508;8.590;2024-03-08T02:18:18;63.80;;;22.42;;
61250;SDS011;47126;47.508;8.590;2024-03-08T02:20:49;65.20;;;23.40;;
61250;SDS011;47126;47.508;8.590;2024-03-08T02:23:15;56.67;;;21.37;;
61250;SDS011;47126;47.508;8.590;2024-03-08T02:25:41;55.50;;;20.98;;
61250;SDS011;47126;47.508;8.590;2024-03-08T02:28:09;54.47;;;21.40;;
61250;SDS011;47126;47.508;8.590;2024-03-08T02:30:38;67.00;;;23.15;;
61250;SDS011;47126;47.508;8.590;2024-03-08T02:33:04;57.33;;;22.63;;
61250;SDS011;47126;47.508;8.590;2024-03-08T02:35:31;56.85;;;21.10;;
61250;SDS011;47126;47.508;8.590;2024-03-08T02:37:57;57.30;;;21.63;;
61250;SDS011;47126;47.508;8.590;2024-03-08T02:40:23;56.42;;;21.83;;
61250;SDS011;47126;47.508;8.590;2024-03-08T02:42:49;56.03;;;22.17;;
61250;SDS011;47126;47.508;8.590;2024-03-08T02:45:15;62.97;;;22.05;;
61250;SDS011;47126;47.508;8.590;2024-03-08T02:47:41;60.25;;;21.42;;
61250;SDS011;47126;47.508;8.590;2024-03-08T02:50:08;55.90;;;21.05;;
61250;SDS011;47126;47.508;8.590;2024-03-08T02:52:34;56.33;;;22.02;;
61250;SDS011;47126;47.508;8.590;2024-03-08T02:55:00;72.18;;;25.00;;
61250;SDS011;47126;47.508;8.590;2024-03-08T02:57:26;62.63;;;22.98;;
61250;SDS011;47126;47.508;8.590;2024-03-08T02:59:53;60.25;;;21.42;;
61250;SDS011;47126;47.508;8.590;2024-03-08T03:02:19;51.88;;;19.38;;
61250;SDS011;47126;47.508;8.590;2024-03-08T03:04:46;48.75;;;19.60;;
61250;SDS011;47126;47.508;8.590;2024-03-08T03:07:13;53.80;;;22.52;;
61250;SDS011;47126;47.508;8.590;2024-03-08T03:09:39;57.15;;;19.60;;
61250;SDS011;47126;47.508;8.590;2024-03-08T03:12:05;61.92;;;21.45;;
61250;SDS011;47126;47.508;8.590;2024-03-08T03:14:34;57.53;;;19.98;;
61250;SDS011;47126;47.508;8.590;2024-03-08T03:17:03;51.75;;;18.85;;
61250;SDS011;47126;47.508;8.590;2024-03-08T03:19:29;57.85;;;20.23;;
61250;SDS011;47126;47.508;8.590;2024-03-08T03:21:55;44.08;;;18.38;;
61250;SDS011;47126;47.508;8.590;2024-03-08T03:24:22;58.83;;;19.98;;
61250;SDS011;47126;47.508;8.590;2024-03-08T03:26:48;52.13;;;19.40;;
61250;SDS011;47126;47.508;8.590;2024-03-08T03:29:15;55.25;;;19.23;;
61250;SDS011;47126;47.508;8.590;2024-03-08T03:31:42;54.25;;;19.85;;
61250;SDS011;47126;47.508;8.590;2024-03-08T03:34:11;51.53;;;19.48;;
61250;SDS011;47126;47.508;8.590;2024-03-08T03:36:37;46.45;;;16.55;;
61250;SDS011;47126;47.508;8.590;2024-03-08T03:39:08;50.22;;;19.23;;
61250;SDS011;47126;47.508;8.590;2024-03-08T03:41:41;50.60;;;18.20;;
61250;SDS011;47126;47.508;8.590;2024-03-08T03:44:09;43.25;;;18.25;;
61250;SDS011;47126;47.508;8.590;2024-03-08T03:46:35;46.90;;;17.00;;
61250;SDS011;47126;47.508;8.590;2024-03-08T03:49:10;50.03;;;18.40;;
61250;SDS011;47126;47.508;8.590;2024-03-08T03:51:37;44.67;;;18.00;;
61250;SDS011;47126;47.508;8.590;2024-03-08T03:54:04;45.95;;;19.45;;
61250;SDS011;47126;47.508;8.590;2024-03-08T03:56:30;50.50;;;18.92;;
61250;SDS011;47126;47.508;8.590;2024-03-08T03:58:56;42.67;;;17.08;;
61250;SDS011;47126;47.508;8.590;2024-03-08T04:01:22;47.75;;;17.60;;
61250;SDS011;47126;47.508;8.590;2024-03-08T04:03:49;42.30;;;16.05;;
61250;SDS011;47126;47.508;8.590;2024-03-08T04:06:15;45.17;;;17.40;;
61250;SDS011;47126;47.508;8.590;2024-03-08T04:08:41;46.05;;;17.52;;
61250;SDS011;47126;47.508;8.590;2024-03-08T04:11:07;45.10;;;15.95;;
61250;SDS011;47126;47.508;8.590;2024-03-08T04:13:34;43.83;;;17.10;;
61250;SDS011;47126;47.508;8.590;2024-03-08T04:16:01;47.50;;;17.70;;
61250;SDS011;47126;47.508;8.590;2024-03-08T04:18:27;51.15;;;19.73;;
61250;SDS011;47126;47.508;8.590;2024-03-08T04:20:53;43.45;;;18.10;;
61250;SDS011;47126;47.508;8.590;2024-03-08T04:23:20;45.30;;;17.95;;
61250;SDS011;47126;47.508;8.590;2024-03-08T04:25:46;48.72;;;16.83;;
61250;SDS011;47126;47.508;8.590;2024-03-08T04:28:12;40.80;;;16.83;;
61250;SDS011;47126;47.508;8.590;2024-03-08T04:30:38;43.28;;;17.17;;
61250;SDS011;47126;47.508;8.590;2024-03-08T04:33:04;37.78;;;16.15;;
61250;SDS011;47126;47.508;8.590;2024-03-08T04:35:31;49.35;;;17.70;;
61250;SDS011;47126;47.508;8.590;2024-03-08T04:37:58;47.15;;;17.17;;
61250;SDS011;47126;47.508;8.590;2024-03-08T04:40:24;51.63;;;17.48;;
61250;SDS011;47126;47.508;8.590;2024-03-08T04:42:53;46.97;;;17.75;;
61250;SDS011;47126;47.508;8.590;2024-03-08T04:45:19;43.53;;;15.82;;
61250;SDS011;47126;47.508;8.590;2024-03-08T04:47:46;41.92;;;17.10;;
61250;SDS011;47126;47.508;8.590;2024-03-08T04:50:12;38.90;;;15.55;;
61250;SDS011;47126;47.508;8.590;2024-03-08T04:52:41;40.67;;;15.32;;
61250;SDS011;47126;47.508;8.590;2024-03-08T04:55:07;43.05;;;16.83;;
61250;SDS011;47126;47.508;8.590;2024-03-08T04:57:34;43.53;;;16.02;;
61250;SDS011;47126;47.508;8.590;2024-03-08T05:00:01;45.08;;;16.90;;
61250;SDS011;47126;47.508;8.590;2024-03-08T05:02:29;43.58;;;17.30;;
61250;SDS011;47126;47.508;8.590;2024-03-08T05:04:55;42.95;;;14.30;;
61250;SDS011;47126;47.508;8.590;2024-03-08T05:07:21;43.25;;;15.98;;
61250;SDS011;47126;47.508;8.590;2024-03-08T05:09:47;45.00;;;16.33;;
61250;SDS011;47126;47.508;8.590;2024-03-08T05:12:17;43.42;;;16.35;;
61250;SDS011;47126;47.508;8.590;2024-03-08T05:14:43;47.50;;;16.58;;
61250;SDS011;47126;47.508;8.590;2024-03-08T05:17:09;44.85;;;15.55;;
61250;SDS011;47126;47.508;8.590;2024-03-08T05:19:35;44.60;;;17.20;;
61250;SDS011;47126;47.508;8.590;2024-03-08T05:22:01;36.78;;;15.48;;
61250;SDS011;47126;47.508;8.590;2024-03-08T05:24:28;43.92;;;17.17;;
61250;SDS011;47126;47.508;8.590;2024-03-08T05:26:55;44.30;;;16.00;;
61250;SDS011;47126;47.508;8.590;2024-03-08T05:29:21;47.25;;;16.98;;
61250;SDS011;47126;47.508;8.590;2024-03-08T05:31:48;58.15;;;23.33;;
61250;SDS011;47126;47.508;8.590;2024-03-08T05:34:15;45.45;;;17.63;;
61250;SDS011;47126;47.508;8.590;2024-03-08T05:36:41;43.63;;;17.55;;
61250;SDS011;47126;47.508;8.590;2024-03-08T05:39:09;45.72;;;16.05;;
61250;SDS011;47126;47.508;8.590;2024-03-08T05:41:38;40.60;;;15.75;;
61250;SDS011;47126;47.508;8.590;2024-03-08T05:44:05;38.55;;;15.55;;
61250;SDS011;47126;47.508;8.590;2024-03-08T05:46:31;40.40;;;15.23;;
61250;SDS011;47126;47.508;8.590;2024-03-08T05:48:57;42.38;;;16.35;;
61250;SDS011;47126;47.508;8.590;2024-03-08T05:51:30;46.05;;;15.43;;
61250;SDS011;47126;47.508;8.590;2024-03-08T05:53:56;36.45;;;15.05;;
61250;SDS011;47126;47.508;8.590;2024-03-08T05:56:23;40.05;;;15.50;;
61250;SDS011;47126;47.508;8.590;2024-03-08T05:58:49;45.60;;;17.40;;
61250;SDS011;47126;47.508;8.590;2024-03-08T06:01:18;46.17;;;17.52;;
61250;SDS011;47126;47.508;8.590;2024-03-08T06:03:45;44.17;;;16.98;;
61250;SDS011;47126;47.508;8.590;2024-03-08T06:06:12;42.38;;;15.88;;
61250;SDS011;47126;47.508;8.590;2024-03-08T06:08:43;37.53;;;15.25;;
61250;SDS011;47126;47.508;8.590;2024-03-08T06:11:09;42.97;;;16.80;;
61250;SDS011;47126;47.508;8.590;2024-03-08T06:13:35;40.22;;;14.15;;
61250;SDS011;47126;47.508;8.590;2024-03-08T06:16:02;47.30;;;16.92;;
61250;SDS011;47126;47.508;8.590;2024-03-08T06:18:29;39.13;;;15.85;;
61250;SDS011;47126;47.508;8.590;2024-03-08T06:20:56;37.33;;;15.32;;
61250;SDS011;47126;47.508;8.590;2024-03-08T06:23:22;38.92;;;15.23;;
61250;SDS011;47126;47.508;8.590;2024-03-08T06:25:48;43.92;;;17.30;;
61250;SDS011;47126;47.508;8.590;2024-03-08T06:28:14;39.38;;;15.73;;
61250;SDS011;47126;47.508;8.590;2024-03-08T06:30:40;39.67;;;15.18;;
61250;SDS011;47126;47.508;8.590;2024-03-08T06:33:08;39.72;;;15.80;;
61250;SDS011;47126;47.508;8.590;2024-03-08T06:35:34;38.78;;;15.27;;
61250;SDS011;47126;47.508;8.590;2024-03-08T06:38:02;38.65;;;14.98;;
61250;SDS011;47126;47.508;8.590;2024-03-08T06:40:29;41.55;;;17.30;;
61250;SDS011;47126;47.508;8.590;2024-03-08T06:43:28;42.85;;;15.05;;
61250;SDS011;47126;47.508;8.590;2024-03-08T06:45:50;36.75;;;14.20;;
61250;SDS011;47126;47.508;8.590;2024-03-08T06:48:17;39.10;;;15.60;;
61250;SDS011;47126;47.508;8.590;2024-03-08T06:50:45;35.60;;;15.45;;
61250;SDS011;47126;47.508;8.590;2024-03-08T06:53:12;35.72;;;14.55;;
61250;SDS011;47126;47.508;8.590;2024-03-08T06:55:38;35.08;;;15.10;;
61250;SDS011;47126;47.508;8.590;2024-03-08T06:58:04;33.83;;;14.48;;
61250;SDS011;47126;47.508;8.590;2024-03-08T07:00:34;42.25;;;15.20;;
61250;SDS011;47126;47.508;8.590;2024-03-08T07:03:03;44.90;;;14.90;;
61250;SDS011;47126;47.508;8.590;2024-03-08T07:05:32;34.50;;;13.55;;
61250;SDS011;47126;47.508;8.590;2024-03-08T07:08:00;34.60;;;13.85;;
61250;SDS011;47126;47.508;8.590;2024-03-08T07:10:26;34.88;;;15.10;;
61250;SDS011;47126;47.508;8.590;2024-03-08T07:12:56;35.38;;;14.82;;
61250;SDS011;47126;47.508;8.590;2024-03-08T07:15:28;46.42;;;15.00;;
61250;SDS011;47126;47.508;8.590;2024-03-08T07:17:54;36.78;;;14.68;;
61250;SDS011;47126;47.508;8.590;2024-03-08T07:20:20;38.17;;;15.52;;
61250;SDS011;47126;47.508;8.590;2024-03-08T07:22:47;36.05;;;14.70;;
61250;SDS011;47126;47.508;8.590;2024-03-08T07:25:33;35.42;;;13.88;;
61250;SDS011;47126;47.508;8.590;2024-03-08T07:28:00;39.25;;;15.40;;
61250;SDS011;47126;47.508;8.590;2024-03-08T07:30:26;36.05;;;15.27;;
61250;SDS011;47126;47.508;8.590;2024-03-08T07:33:11;31.83;;;13.90;;
61250;SDS011;47126;47.508;8.590;2024-03-08T07:35:37;39.67;;;15.13;;
61250;SDS011;47126;47.508;8.590;2024-03-08T07:38:04;35.30;;;14.07;;
61250;SDS011;47126;47.508;8.590;2024-03-08T07:40:37;34.22;;;15.13;;
61250;SDS011;47126;47.508;8.590;2024-03-08T07:43:06;33.95;;;14.13;;
61250;SDS011;47126;47.508;8.590;2024-03-08T07:45:32;36.38;;;13.63;;
61250;SDS011;47126;47.508;8.590;2024-03-08T07:47:58;41.13;;;14.82;;
61250;SDS011;47126;47.508;8.590;2024-03-08T07:50:24;38.78;;;14.35;;
61250;SDS011;47126;47.508;8.590;2024-03-08T07:52:58;36.45;;;13.75;;
61250;SDS011;47126;47.508;8.590;2024-03-08T07:55:24;34.25;;;13.95;;
61250;SDS011;47126;47.508;8.590;2024-03-08T07:57:51;38.80;;;14.50;;
61250;SDS011;47126;47.508;8.590;2024-03-08T08:00:18;31.85;;;12.65;;
61250;SDS011;47126;47.508;8.590;2024-03-08T08:02:46;32.15;;;14.10;;
61250;SDS011;47126;47.508;8.590;2024-03-08T08:05:15;40.25;;;14.30;;
61250;SDS011;47126;47.508;8.590;2024-03-08T08:07:49;28.92;;;13.10;;
61250;SDS011;47126;47.508;8.590;2024-03-08T08:10:20;30.02;;;12.60;;
61250;SDS011;47126;47.508;8.590;2024-03-08T08:12:50;36.50;;;13.43;;
61250;SDS011;47126;47.508;8.590;2024-03-08T08:15:25;32.70;;;13.35;;
61250;SDS011;47126;47.508;8.590;2024-03-08T08:17:56;33.90;;;13.68;;
61250;SDS011;47126;47.508;8.590;2024-03-08T08:20:48;30.20;;;12.73;;
61250;SDS011;47126;47.508;8.590;2024-03-08T08:23:15;33.10;;;12.60;;
61250;SDS011;47126;47.508;8.590;2024-03-08T08:25:44;29.42;;;13.40;;
61250;SDS011;47126;47.508;8.590;2024-03-08T08:28:15;35.55;;;13.95;;
61250;SDS011;47126;47.508;8.590;2024-03-08T08:30:42;33.13;;;13.13;;
61250;SDS011;47126;47.508;8.590;2024-03-08T08:33:08;34.78;;;15.90;;
61250;SDS011;47126;47.508;8.590;2024-03-08T08:35:35;33.88;;;13.88;;
61250;SDS011;47126;47.508;8.590;2024-03-08T08:38:07;58.70;;;28.38;;
61250;SDS011;47126;47.508;8.590;2024-03-08T08:40:39;29.80;;;13.98;;
61250;SDS011;47126;47.508;8.590;2024-03-08T08:43:26;33.03;;;13.80;;
61250;SDS011;47126;47.508;8.590;2024-03-08T08:45:53;32.72;;;14.32;;
61250;SDS011;47126;47.508;8.590;2024-03-08T08:48:20;34.88;;;15.10;;
61250;SDS011;47126;47.508;8.590;2024-03-08T08:50:47;33.50;;;14.95;;
61250;SDS011;47126;47.508;8.590;2024-03-08T08:53:19;35.30;;;16.92;;
61250;SDS011;47126;47.508;8.590;2024-03-08T08:55:45;33.47;;;14.82;;
61250;SDS011;47126;47.508;8.590;2024-03-08T08:58:11;37.00;;;15.15;;
61250;SDS011;47126;47.508;8.590;2024-03-08T09:00:38;34.63;;;14.32;;
61250;SDS011;47126;47.508;8.590;2024-03-08T09:03:05;31.20;;;13.25;;
61250;SDS011;47126;47.508;8.590;2024-03-08T09:05:32;29.38;;;13.35;;
61250;SDS011;47126;47.508;8.590;2024-03-08T09:07:59;41.03;;;16.10;;
61250;SDS011;47126;47.508;8.590;2024-03-08T09:10:29;39.70;;;15.40;;
61250;SDS011;47126;47.508;8.590;2024-03-08T09:13:01;34.13;;;14.75;;
61250;SDS011;47126;47.508;8.590;2024-03-08T09:15:29;36.72;;;15.90;;
61250;SDS011;47126;47.508;8.590;2024-03-08T09:17:55;36.03;;;14.75;;
61250;SDS011;47126;47.508;8.590;2024-03-08T09:20:21;34.80;;;14.75;;
61250;SDS011;47126;47.508;8.590;2024-03-08T09:22:47;48.60;;;22.30;;
61250;SDS011;47126;47.508;8.590;2024-03-08T09:25:13;33.45;;;14.25;;
61250;SDS011;47126;47.508;8.590;2024-03-08T09:27:39;36.03;;;16.30;;
61250;SDS011;47126;47.508;8.590;2024-03-08T09:30:06;33.47;;;13.63;;
61250;SDS011;47126;47.508;8.590;2024-03-08T09:32:32;33.13;;;13.88;;
61250;SDS011;47126;47.508;8.590;2024-03-08T09:34:59;33.00;;;13.88;;
61250;SDS011;47126;47.508;8.590;2024-03-08T09:37:26;37.83;;;14.38;;
61250;SDS011;47126;47.508;8.590;2024-03-08T09:39:53;38.85;;;15.00;;
61250;SDS011;47126;47.508;8.590;2024-03-08T09:42:19;34.78;;;13.32;;
61250;SDS011;47126;47.508;8.590;2024-03-08T09:44:45;33.17;;;13.20;;
61250;SDS011;47126;47.508;8.590;2024-03-08T09:47:15;29.88;;;12.73;;
61250;SDS011;47126;47.508;8.590;2024-03-08T09:49:49;34.10;;;13.18;;
61250;SDS011;47126;47.508;8.590;2024-03-08T09:52:16;32.20;;;13.65;;
61250;SDS011;47126;47.508;8.590;2024-03-08T09:54:42;32.25;;;12.60;;
61250;SDS011;47126;47.508;8.590;2024-03-08T09:57:09;30.85;;;11.70;;
61250;SDS011;47126;47.508;8.590;2024-03-08T09:59:36;35.10;;;13.20;;
61250;SDS011;47126;47.508;8.590;2024-03-08T10:02:02;31.48;;;13.55;;
61250;SDS011;47126;47.508;8.590;2024-03-08T10:04:28;34.00;;;14.00;;
61250;SDS011;47126;47.508;8.590;2024-03-08T10:06:57;37.17;;;15.00;;
61250;SDS011;47126;47.508;8.590;2024-03-08T10:09:24;31.98;;;12.38;;
61250;SDS011;47126;47.508;8.590;2024-03-08T10:11:56;39.13;;;15.85;;
61250;SDS011;47126;47.508;8.590;2024-03-08T10:14:23;35.63;;;13.17;;
61250;SDS011;47126;47.508;8.590;2024-03-08T10:16:51;29.02;;;13.45;;
61250;SDS011;47126;47.508;8.590;2024-03-08T10:19:21;28.17;;;11.88;;
61250;SDS011;47126;47.508;8.590;2024-03-08T10:21:52;34.58;;;13.25;;
61250;SDS011;47126;47.508;8.590;2024-03-08T10:24:22;32.17;;;13.40;;
61250;SDS011;47126;47.508;8.590;2024-03-08T10:26:51;32.13;;;13.27;;
61250;SDS011;47126;47.508;8.590;2024-03-08T10:29:24;33.88;;;13.18;;
61250;SDS011;47126;47.508;8.590;2024-03-08T10:31:50;29.88;;;12.50;;
61250;SDS011;47126;47.508;8.590;2024-03-08T10:34:16;34.38;;;13.88;;
61250;SDS011;47126;47.508;8.590;2024-03-08T10:36:42;32.45;;;13.05;;
61250;SDS011;47126;47.508;8.590;2024-03-08T10:39:21;28.67;;;12.85;;
61250;SDS011;47126;47.508;8.590;2024-03-08T10:41:49;31.30;;;13.80;;
61250;SDS011;47126;47.508;8.590;2024-03-08T10:44:29;34.67;;;13.55;;
61250;SDS011;47126;47.508;8.590;2024-03-08T10:47:00;28.60;;;12.30;;
61250;SDS011;47126;47.508;8.590;2024-03-08T10:50:15;34.78;;;13.15;;
61250;SDS011;47126;47.508;8.590;2024-03-08T10:52:20;28.92;;;12.20;;
61250;SDS011;47126;47.508;8.590;2024-03-08T10:54:48;27.95;;;12.68;;
61250;SDS011;47126;47.508;8.590;2024-03-08T10:57:17;30.40;;;12.43;;
61250;SDS011;47126;47.508;8.590;2024-03-08T10:59:44;33.78;;;12.75;;
61250;SDS011;47126;47.508;8.590;2024-03-08T11:02:14;29.50;;;12.40;;
61250;SDS011;47126;47.508;8.590;2024-03-08T11:05:02;25.23;;;11.55;;
61250;SDS011;47126;47.508;8.590;2024-03-08T11:07:35;28.52;;;11.95;;
61250;SDS011;47126;47.508;8.590;2024-03-08T11:10:07;30.85;;;12.40;;
61250;SDS011;47126;47.508;8.590;2024-03-08T11:12:37;35.03;;;12.63;;
61250;SDS011;47126;47.508;8.590;2024-03-08T11:15:12;33.47;;;12.30;;
61250;SDS011;47126;47.508;8.590;2024-03-08T11:20:11;27.58;;;12.10;;
61250;SDS011;47126;47.508;8.590;2024-03-08T11:22:50;29.67;;;13.02;;
61250;SDS011;47126;47.508;8.590;2024-03-08T11:25:36;31.70;;;11.75;;
61250;SDS011;47126;47.508;8.590;2024-03-08T11:28:13;32.10;;;12.23;;
61250;SDS011;47126;47.508;8.590;2024-03-08T11:30:46;28.58;;;12.57;;
61250;SDS011;47126;47.508;8.590;2024-03-08T11:33:16;26.52;;;10.82;;
61250;SDS011;47126;47.508;8.590;2024-03-08T11:35:43;27.67;;;10.98;;
61250;SDS011;47126;47.508;8.590;2024-03-08T11:38:11;32.13;;;13.30;;
61250;SDS011;47126;47.508;8.590;2024-03-08T11:40:39;27.25;;;12.15;;
61250;SDS011;47126;47.508;8.590;2024-03-08T11:43:05;30.73;;;12.40;;
61250;SDS011;47126;47.508;8.590;2024-03-08T11:45:35;25.92;;;12.55;;
61250;SDS011;47126;47.508;8.590;2024-03-08T11:48:02;27.90;;;11.65;;
61250;SDS011;47126;47.508;8.590;2024-03-08T11:50:31;33.20;;;11.60;;
61250;SDS011;47126;47.508;8.590;2024-03-08T11:53:01;31.08;;;13.88;;
61250;SDS011;47126;47.508;8.590;2024-03-08T11:55:37;26.77;;;11.57;;
61250;SDS011;47126;47.508;8.590;2024-03-08T11:58:07;29.60;;;12.35;;
61250;SDS011;47126;47.508;8.590;2024-03-08T12:00:33;29.50;;;13.32;;
61250;SDS011;47126;47.508;8.590;2024-03-08T12:03:09;28.35;;;11.75;;
61250;SDS011;47126;47.508;8.590;2024-03-08T12:05:38;27.67;;;11.73;;
61250;SDS011;47126;47.508;8.590;2024-03-08T12:08:04;29.42;;;12.95;;
61250;SDS011;47126;47.508;8.590;2024-03-08T12:10:32;30.13;;;12.93;;
61250;SDS011;47126;47.508;8.590;2024-03-08T12:13:00;29.85;;;13.52;;
61250;SDS011;47126;47.508;8.590;2024-03-08T12:15:29;28.65;;;12.65;;
61250;SDS011;47126;47.508;8.590;2024-03-08T12:17:57;29.98;;;12.05;;
61250;SDS011;47126;47.508;8.590;2024-03-08T12:20:26;30.85;;;12.65;;
61250;SDS011;47126;47.508;8.590;2024-03-08T12:22:54;29.10;;;11.82;;
61250;SDS011;47126;47.508;8.590;2024-03-08T12:25:27;29.27;;;12.50;;
61250;SDS011;47126;47.508;8.590;2024-03-08T12:28:12;30.58;;;13.85;;
61250;SDS011;47126;47.508;8.590;2024-03-08T12:30:58;27.95;;;12.43;;
61250;SDS011;47126;47.508;8.590;2024-03-08T12:33:26;26.98;;;12.65;;
61250;SDS011;47126;47.508;8.590;2024-03-08T12:35:52;28.30;;;13.38;;
61250;SDS011;47126;47.508;8.590;2024-03-08T12:38:20;30.67;;;13.70;;
61250;SDS011;47126;47.508;8.590;2024-03-08T12:40:55;30.02;;;14.07;;
61250;SDS011;47126;47.508;8.590;2024-03-08T12:43:21;29.25;;;13.13;;
61250;SDS011;47126;47.508;8.590;2024-03-08T12:45:48;28.63;;;12.93;;
61250;SDS011;47126;47.508;8.590;2024-03-08T12:48:14;28.95;;;11.98;;
61250;SDS011;47126;47.508;8.590;2024-03-08T12:50:42;29.10;;;13.05;;
61250;SDS011;47126;47.508;8.590;2024-03-08T12:53:10;25.85;;;11.77;;
61250;SDS011;47126;47.508;8.590;2024-03-08T12:55:36;28.92;;;13.70;;
61250;SDS011;47126;47.508;8.590;2024-03-08T12:58:08;31.25;;;12.13;;
61250;SDS011;47126;47.508;8.590;2024-03-08T13:00:34;31.50;;;13.10;;
61250;SDS011;47126;47.508;8.590;2024-03-08T13:03:08;26.70;;;12.15;;
61250;SDS011;47126;47.508;8.590;2024-03-08T13:05:35;26.38;;;11.95;;
61250;SDS011;47126;47.508;8.590;2024-03-08T13:08:04;28.73;;;11.95;;
61250;SDS011;47126;47.508;8.590;2024-03-08T13:10:32;32.47;;;14.82;;
61250;SDS011;47126;47.508;8.590;2024-03-08T13:12:58;26.98;;;12.15;;
61250;SDS011;47126;47.508;8.590;2024-03-08T13:15:24;26.05;;;11.20;;
61250;SDS011;47126;47.508;8.590;2024-03-08T13:17:50;27.45;;;11.95;;
61250;SDS011;47126;47.508;8.590;2024-03-08T13:20:16;29.90;;;13.18;;
61250;SDS011;47126;47.508;8.590;2024-03-08T13:22:48;26.27;;;11.55;;
61250;SDS011;47126;47.508;8.590;2024-03-08T13:25:14;27.65;;;10.80;;
61250;SDS011;47126;47.508;8.590;2024-03-08T13:27:41;26.90;;;12.07;;
61250;SDS011;47126;47.508;8.590;2024-03-08T13:30:11;25.52;;;12.10;;
61250;SDS011;47126;47.508;8.590;2024-03-08T13:32:41;24.60;;;11.98;;
61250;SDS011;47126;47.508;8.590;2024-03-08T13:35:08;25.10;;;12.27;;
61250;SDS011;47126;47.508;8.590;2024-03-08T13:37:41;26.83;;;11.85;;
61250;SDS011;47126;47.508;8.590;2024-03-08T13:40:07;25.55;;;10.80;;
61250;SDS011;47126;47.508;8.590;2024-03-08T13:42:41;26.30;;;12.75;;
61250;SDS011;47126;47.508;8.590;2024-03-08T13:45:11;23.05;;;10.73;;
61250;SDS011;47126;47.508;8.590;2024-03-08T13:47:37;28.13;;;11.57;;
61250;SDS011;47126;47.508;8.590;2024-03-08T13:50:05;29.25;;;10.32;;
61250;SDS011;47126;47.508;8.590;2024-03-08T13:55:24;24.45;;;11.50;;
61250;SDS011;47126;47.508;8.590;2024-03-08T13:58:10;23.33;;;10.57;;
61250;SDS011;47126;47.508;8.590;2024-03-08T14:00:38;25.80;;;11.88;;
61250;SDS011;47126;47.508;8.590;2024-03-08T14:03:06;24.58;;;10.57;;
61250;SDS011;47126;47.508;8.590;2024-03-08T14:05:32;24.48;;;10.73;;
61250;SDS011;47126;47.508;8.590;2024-03-08T14:08:04;22.33;;;9.43;;
61250;SDS011;47126;47.508;8.590;2024-03-08T14:10:32;19.98;;;10.55;;
61250;SDS011;47126;47.508;8.590;2024-03-08T14:12:59;24.83;;;10.65;;
61250;SDS011;47126;47.508;8.590;2024-03-08T14:15:25;25.23;;;10.88;;
61250;SDS011;47126;47.508;8.590;2024-03-08T14:17:52;21.25;;;9.52;;
61250;SDS011;47126;47.508;8.590;2024-03-08T14:20:18;20.67;;;9.48;;
61250;SDS011;47126;47.508;8.590;2024-03-08T14:22:44;21.88;;;9.30;;
61250;SDS011;47126;47.508;8.590;2024-03-08T14:25:11;24.58;;;9.85;;
61250;SDS011;47126;47.508;8.590;2024-03-08T14:27:42;24.38;;;10.45;;
61250;SDS011;47126;47.508;8.590;2024-03-08T14:30:09;22.83;;;10.10;;
61250;SDS011;47126;47.508;8.590;2024-03-08T14:32:35;22.90;;;9.95;;